createdAt,value
2023-10-18T00:01:27.735Z,3.40
2023-10-18T00:03:56.151Z,3.30
2023-10-18T00:06:24.340Z,3.30
2023-10-18T00:08:58.649Z,3.30
2023-10-18T00:11:28.800Z,3.20
2023-10-18T00:13:55.494Z,3.20
2023-10-18T00:16:25.618Z,3.10
2023-10-18T00:18:52.378Z,3.20
2023-10-18T00:21:19.065Z,3.10
2023-10-18T00:23:45.810Z,3.10
2023-10-18T00:26:13.022Z,3.00
2023-10-18T00:28:39.915Z,3.00
2023-10-18T00:31:21.717Z,3.10
2023-10-18T00:33:49.025Z,3.00
2023-10-18T00:36:18.663Z,3.00
2023-10-18T00:38:45.751Z,3.00
2023-10-18T00:41:23.466Z,3.10
2023-10-18T00:43:53.991Z,3.10
2023-10-18T00:46:21.494Z,3.10
2023-10-18T00:48:48.277Z,3.00
2023-10-18T00:51:19.430Z,3.00
2023-10-18T00:53:49.929Z,2.80
2023-10-18T00:56:17.115Z,2.80
2023-10-18T00:58:45.511Z,2.80
2023-10-18T01:01:13.201Z,2.80
2023-10-18T01:03:47.529Z,2.80
2023-10-18T01:06:18.535Z,2.80
2023-10-18T01:08:47.594Z,2.80
2023-10-18T01:11:15.364Z,2.80
2023-10-18T01:13:43.201Z,2.80
2023-10-18T01:16:16.885Z,2.90
2023-10-18T01:18:50.163Z,2.90
2023-10-18T01:21:19.229Z,2.90
2023-10-18T01:23:56.835Z,2.90
2023-10-18T01:26:24.881Z,2.90
2023-10-18T01:28:54.517Z,2.90
2023-10-18T01:31:21.743Z,3.00
2023-10-18T01:33:49.416Z,3.10
2023-10-18T01:36:17.582Z,3.10
2023-10-18T01:38:53.176Z,3.10
2023-10-18T01:41:39.094Z,3.10
2023-10-18T01:44:09.026Z,3.00
2023-10-18T01:46:36.804Z,3.00
2023-10-18T01:49:08.242Z,3.00
2023-10-18T01:51:35.787Z,2.80
2023-10-18T01:54:13.896Z,2.70
2023-10-18T01:56:43.806Z,2.60
2023-10-18T01:59:14.657Z,2.60
2023-10-18T02:01:45.686Z,2.60
2023-10-18T02:04:35.812Z,2.60
2023-10-18T02:07:08.363Z,2.60
2023-10-18T02:09:51.852Z,2.70
2023-10-18T02:12:20.509Z,2.70
2023-10-18T02:14:51.856Z,2.60
2023-10-18T02:17:23.124Z,2.60
2023-10-18T02:19:50.101Z,2.60
2023-10-18T02:22:20.190Z,2.60
2023-10-18T02:24:47.411Z,2.50
2023-10-18T02:27:17.662Z,2.40
2023-10-18T02:29:46.305Z,2.30
2023-10-18T02:32:43.072Z,2.40
2023-10-18T02:35:10.744Z,2.40
2023-10-18T02:37:37.512Z,2.40
2023-10-18T02:40:10.694Z,2.50
2023-10-18T02:42:37.899Z,2.60
2023-10-18T02:45:14.411Z,2.50
2023-10-18T02:47:42.061Z,2.50
2023-10-18T02:50:09.025Z,2.50
2023-10-18T02:52:36.537Z,2.40
2023-10-18T02:55:04.046Z,2.30
2023-10-18T02:57:33.281Z,2.20
2023-10-18T03:00:00.849Z,2.20
2023-10-18T03:02:28.126Z,2.20
2023-10-18T03:04:57.212Z,2.20
2023-10-18T03:07:23.940Z,2.30
2023-10-18T03:09:50.877Z,2.40
2023-10-18T03:12:19.163Z,2.30
2023-10-18T03:14:55.055Z,2.30
2023-10-18T03:17:26.398Z,2.30
2023-10-18T03:19:57.629Z,2.30
2023-10-18T03:22:27.606Z,2.40
2023-10-18T03:24:55.417Z,2.40
2023-10-18T03:27:33.562Z,2.50
2023-10-18T03:30:13.032Z,2.50
2023-10-18T03:32:39.754Z,2.40
2023-10-18T03:35:10.593Z,2.40
2023-10-18T03:37:40.740Z,2.50
2023-10-18T03:40:20.302Z,2.50
2023-10-18T03:42:52.159Z,2.50
2023-10-18T03:45:22.953Z,2.50
2023-10-18T03:47:59.520Z,2.50
2023-10-18T03:50:32.671Z,2.50
2023-10-18T03:52:59.322Z,2.50
2023-10-18T03:55:38.013Z,2.60
2023-10-18T03:58:06.432Z,2.60
2023-10-18T04:00:39.441Z,2.60
2023-10-18T04:03:13.182Z,2.50
2023-10-18T04:05:46.564Z,2.60
2023-10-18T04:08:18.807Z,2.60
2023-10-18T04:10:46.264Z,2.50
2023-10-18T04:13:13.587Z,2.50
2023-10-18T04:15:43.144Z,2.60
2023-10-18T04:18:09.823Z,2.60
2023-10-18T04:20:43.469Z,2.60
2023-10-18T04:23:16.503Z,2.50
2023-10-18T04:25:43.641Z,2.40
2023-10-18T04:28:13.185Z,2.50
2023-10-18T04:30:39.961Z,2.50
2023-10-18T04:33:12.503Z,2.60
2023-10-18T04:35:46.478Z,2.50
2023-10-18T04:38:23.097Z,2.20
2023-10-18T04:41:02.205Z,2.10
2023-10-18T04:43:29.167Z,2.00
2023-10-18T04:45:57.944Z,1.90
2023-10-18T04:48:44.723Z,1.90
2023-10-18T04:51:27.824Z,2.00
2023-10-18T04:53:55.306Z,2.10
2023-10-18T04:56:30.869Z,2.20
2023-10-18T04:59:00.757Z,2.20
2023-10-18T05:01:34.540Z,2.20
2023-10-18T05:04:19.601Z,2.30
2023-10-18T05:06:56.361Z,2.30
2023-10-18T05:09:32.575Z,2.30
2023-10-18T05:11:59.309Z,2.30
2023-10-18T05:17:18.815Z,2.30
2023-10-18T05:19:45.946Z,2.30
2023-10-18T05:22:24.967Z,2.30
2023-10-18T05:25:19.003Z,2.20
2023-10-18T05:28:04.009Z,2.30
2023-10-18T05:30:50.087Z,2.30
2023-10-18T05:33:30.814Z,2.30
2023-10-18T05:36:32.322Z,2.30
2023-10-18T05:39:17.839Z,2.30
2023-10-18T05:41:47.471Z,2.30
2023-10-18T05:44:14.538Z,2.30
2023-10-18T05:46:42.369Z,2.30
2023-10-18T05:49:15.405Z,2.30
2023-10-18T05:52:02.302Z,2.30
2023-10-18T05:54:30.164Z,2.30
2023-10-18T05:56:57.569Z,2.30
2023-10-18T05:59:33.208Z,2.30
2023-10-18T06:02:02.246Z,2.30
2023-10-18T06:04:39.365Z,2.20
2023-10-18T06:07:10.918Z,2.30
2023-10-18T06:09:49.744Z,2.30
2023-10-18T06:12:23.926Z,2.40
2023-10-18T06:14:54.190Z,2.40
2023-10-18T06:17:27.209Z,2.50
2023-10-18T06:19:58.166Z,2.50
2023-10-18T06:22:40.098Z,2.60
2023-10-18T06:25:11.017Z,2.60
2023-10-18T06:27:40.856Z,2.70
2023-10-18T06:30:15.825Z,2.80
2023-10-18T06:32:44.748Z,2.90
2023-10-18T06:35:27.382Z,2.90
2023-10-18T06:37:55.990Z,2.90
2023-10-18T06:40:58.349Z,2.90
2023-10-18T06:43:30.379Z,3.00
2023-10-18T06:45:58.504Z,3.00
2023-10-18T06:48:29.669Z,3.10
2023-10-18T06:50:56.817Z,3.20
2023-10-18T06:53:27.202Z,3.40
2023-10-18T06:56:00.870Z,3.50
2023-10-18T06:58:30.098Z,3.60
2023-10-18T07:01:02.260Z,3.60
2023-10-18T07:03:29.284Z,3.50
2023-10-18T07:06:05.304Z,3.50
2023-10-18T07:08:35.330Z,3.50
2023-10-18T07:11:18.376Z,3.50
2023-10-18T07:13:55.401Z,3.50
2023-10-18T07:16:31.771Z,3.60
2023-10-18T07:19:07.826Z,3.70
2023-10-18T07:21:34.881Z,3.90
2023-10-18T07:24:10.765Z,4.00
2023-10-18T07:26:38.976Z,4.00
2023-10-18T07:29:07.978Z,4.20
2023-10-18T07:31:39.388Z,4.30
2023-10-18T07:34:10.357Z,4.40
2023-10-18T07:36:40.866Z,4.50
2023-10-18T07:39:07.820Z,4.50
2023-10-18T07:41:37.379Z,4.70
2023-10-18T07:44:08.011Z,4.90
2023-10-18T07:46:36.179Z,4.90
2023-10-18T07:49:06.527Z,5.10
2023-10-18T07:51:34.030Z,5.40
2023-10-18T07:54:06.152Z,5.70
2023-10-18T07:56:32.850Z,5.80
2023-10-18T07:59:18.926Z,6.00
2023-10-18T08:01:48.623Z,6.20
2023-10-18T08:04:18.616Z,6.40
2023-10-18T08:06:51.674Z,6.50
2023-10-18T08:09:21.151Z,6.70
2023-10-18T08:11:51.852Z,6.80
2023-10-18T08:14:20.311Z,6.90
2023-10-18T08:16:54.894Z,7.00
2023-10-18T08:19:24.289Z,7.10
2023-10-18T08:22:03.367Z,7.30
2023-10-18T08:24:35.422Z,7.40
2023-10-18T08:27:11.343Z,7.50
2023-10-18T08:29:38.367Z,7.60
2023-10-18T08:32:07.892Z,7.70
2023-10-18T08:34:35.694Z,7.90
2023-10-18T08:37:03.010Z,8.00
2023-10-18T08:39:29.880Z,8.10
2023-10-18T08:42:14.478Z,8.20
2023-10-18T08:44:41.653Z,8.30
2023-10-18T08:47:09.857Z,8.50
2023-10-18T08:49:54.418Z,8.60
2023-10-18T08:52:22.010Z,8.80
2023-10-18T08:54:49.837Z,8.90
2023-10-18T08:57:35.900Z,9.00
2023-10-18T09:00:38.906Z,9.20
2023-10-18T09:03:08.932Z,9.30
2023-10-18T09:05:36.624Z,9.60
2023-10-18T09:08:04.866Z,9.70
2023-10-18T09:10:38.899Z,9.90
2023-10-18T09:13:19.373Z,10.00
2023-10-18T09:16:02.704Z,10.20
2023-10-18T09:18:34.610Z,10.30
2023-10-18T09:21:14.325Z,10.50
2023-10-18T09:23:41.983Z,10.60
2023-10-18T09:26:14.241Z,10.70
2023-10-18T09:28:44.395Z,10.80
2023-10-18T09:31:23.949Z,10.90
2023-10-18T09:33:51.775Z,11.10
2023-10-18T09:36:26.625Z,11.10
2023-10-18T09:38:55.137Z,11.20
2023-10-18T09:41:27.966Z,11.30
2023-10-18T09:43:54.753Z,11.50
2023-10-18T09:46:21.696Z,11.60
2023-10-18T09:48:48.548Z,11.70
2023-10-18T09:51:16.999Z,11.80
2023-10-18T09:53:44.793Z,11.90
2023-10-18T09:56:12.451Z,12.10
2023-10-18T09:58:46.010Z,12.10
2023-10-18T10:01:49.520Z,12.20
2023-10-18T10:04:20.025Z,12.30
2023-10-18T10:06:47.448Z,12.50
2023-10-18T10:09:17.098Z,12.70
2023-10-18T10:11:47.850Z,12.90
2023-10-18T10:14:17.735Z,13.10
2023-10-18T10:17:08.967Z,13.30
2023-10-18T10:19:42.110Z,13.30
2023-10-18T10:22:13.026Z,13.40
2023-10-18T10:24:46.996Z,13.50
2023-10-18T10:27:33.746Z,13.60
2023-10-18T10:30:22.595Z,13.60
2023-10-18T10:33:07.026Z,13.70
2023-10-18T10:35:34.394Z,13.90
2023-10-18T10:38:16.512Z,14.00
2023-10-18T10:40:49.544Z,14.10
2023-10-18T10:43:19.952Z,14.30
2023-10-18T10:45:47.959Z,14.30
2023-10-18T10:48:26.718Z,14.40
2023-10-18T10:51:13.331Z,14.50
2023-10-18T10:54:02.288Z,14.60
2023-10-18T10:56:29.081Z,14.60
2023-10-18T10:58:57.173Z,14.70
2023-10-18T11:01:55.164Z,14.70
2023-10-18T11:04:29.456Z,14.70
2023-10-18T11:07:02.081Z,14.50
2023-10-18T11:09:33.719Z,14.50
2023-10-18T11:12:05.711Z,14.40
2023-10-18T11:14:32.622Z,14.40
2023-10-18T11:17:10.365Z,14.50
2023-10-18T11:19:42.223Z,14.50
2023-10-18T11:22:09.721Z,14.50
2023-10-18T11:24:40.607Z,14.60
2023-10-18T11:27:11.102Z,14.70
2023-10-18T11:29:42.746Z,14.70
2023-10-18T11:32:16.716Z,14.70
2023-10-18T11:34:45.178Z,14.80
2023-10-18T11:37:15.410Z,14.80
2023-10-18T11:39:42.504Z,14.80
2023-10-18T11:42:11.987Z,14.70
2023-10-18T11:44:40.291Z,14.70
2023-10-18T11:47:20.466Z,14.60
2023-10-18T11:49:54.787Z,14.60
2023-10-18T11:52:26.738Z,14.50
2023-10-18T11:55:09.949Z,14.50
2023-10-18T11:57:41.118Z,14.50
2023-10-18T12:00:26.469Z,14.40
2023-10-18T12:02:55.224Z,14.40
2023-10-18T12:05:26.154Z,14.40
2023-10-18T12:07:55.186Z,14.40
2023-10-18T12:10:35.854Z,14.40
2023-10-18T12:13:08.180Z,14.50
2023-10-18T12:15:35.997Z,14.60
2023-10-18T12:18:05.728Z,14.70
2023-10-18T12:20:36.565Z,14.70
2023-10-18T12:23:05.885Z,14.70
2023-10-18T12:25:33.608Z,14.70
2023-10-18T12:28:01.941Z,14.70
2023-10-18T12:30:32.690Z,14.70
2023-10-18T12:33:05.945Z,14.70
2023-10-18T12:35:36.136Z,14.60
2023-10-18T12:38:14.120Z,14.60
2023-10-18T12:40:52.173Z,14.60
2023-10-18T12:43:20.989Z,14.50
2023-10-18T12:45:51.601Z,14.50
2023-10-18T12:48:25.081Z,14.50
2023-10-18T12:50:52.933Z,14.40
2023-10-18T12:53:27.541Z,14.50
2023-10-18T12:55:58.966Z,14.40
2023-10-18T12:58:32.741Z,14.40
2023-10-18T13:01:20.259Z,14.40
2023-10-18T13:03:58.735Z,14.40
2023-10-18T13:06:32.633Z,14.40
2023-10-18T13:09:17.776Z,14.40
2023-10-18T13:11:52.117Z,14.40
2023-10-18T13:14:33.176Z,14.40
2023-10-18T13:17:04.490Z,14.40
2023-10-18T13:19:33.266Z,14.40
2023-10-18T13:22:00.499Z,14.40
2023-10-18T13:24:30.176Z,14.30
2023-10-18T13:27:01.660Z,14.20
2023-10-18T13:29:29.064Z,14.10
2023-10-18T13:31:58.905Z,14.10
2023-10-18T13:34:40.958Z,14.20
2023-10-18T13:37:11.513Z,14.10
2023-10-18T13:39:44.038Z,14.10
2023-10-18T13:42:13.052Z,14.00
2023-10-18T13:44:42.423Z,13.90
2023-10-18T13:47:13.385Z,13.80
2023-10-18T13:49:41.525Z,13.80
2023-10-18T13:52:08.904Z,13.80
2023-10-18T13:54:35.944Z,13.70
2023-10-18T13:57:03.294Z,13.70
2023-10-18T13:59:31.186Z,13.70
2023-10-18T14:01:58.375Z,13.70
2023-10-18T14:04:26.583Z,13.60
2023-10-18T14:06:59.206Z,13.70
2023-10-18T14:09:26.947Z,13.70
2023-10-18T14:11:54.310Z,13.70
2023-10-18T14:14:21.556Z,13.60
2023-10-18T14:16:49.745Z,13.60
2023-10-18T14:19:20.422Z,13.50
2023-10-18T14:21:49.788Z,13.50
2023-10-18T14:24:18.617Z,13.50
2023-10-18T14:26:45.908Z,13.40
2023-10-18T14:29:13.356Z,13.30
2023-10-18T14:31:40.644Z,13.30
2023-10-18T14:34:08.244Z,13.30
2023-10-18T14:36:36.033Z,13.20
2023-10-18T14:39:04.513Z,13.10
2023-10-18T14:41:33.642Z,13.00
2023-10-18T14:44:01.533Z,13.00
2023-10-18T14:46:31.466Z,13.00
2023-10-18T14:49:00.118Z,13.00
2023-10-18T14:51:27.872Z,12.90
2023-10-18T14:53:54.720Z,12.90
2023-10-18T14:56:23.907Z,12.90
2023-10-18T14:58:53.165Z,12.80
2023-10-18T15:01:20.190Z,12.70
2023-10-18T15:03:48.354Z,12.70
2023-10-18T15:06:18.938Z,12.70
2023-10-18T15:08:46.952Z,12.60
2023-10-18T15:11:21.379Z,12.50
2023-10-18T15:13:49.431Z,12.50
2023-10-18T15:16:17.926Z,12.40
2023-10-18T15:18:48.966Z,12.40
2023-10-18T15:21:16.711Z,12.30
2023-10-18T15:23:46.792Z,12.30
2023-10-18T15:26:26.761Z,12.20
2023-10-18T15:28:53.949Z,12.10
2023-10-18T15:31:22.281Z,12.10
2023-10-18T15:33:49.328Z,12.00
2023-10-18T15:36:24.408Z,12.00
2023-10-18T15:38:53.656Z,12.00
2023-10-18T15:41:22.135Z,12.00
2023-10-18T15:43:54.683Z,12.00
2023-10-18T15:46:28.191Z,11.90
2023-10-18T15:48:58.530Z,11.90
2023-10-18T15:51:25.858Z,11.90
2023-10-18T15:53:56.935Z,11.70
2023-10-18T15:56:28.839Z,11.60
2023-10-18T15:58:57.266Z,11.50
2023-10-18T16:01:25.058Z,11.40
2023-10-18T16:03:52.987Z,11.30
2023-10-18T16:06:21.695Z,11.20
2023-10-18T16:08:49.797Z,11.10
2023-10-18T16:11:17.028Z,11.00
2023-10-18T16:13:44.100Z,10.90
2023-10-18T16:16:12.333Z,10.80
2023-10-18T16:18:42.447Z,10.80
2023-10-18T16:21:13.719Z,10.70
2023-10-18T16:23:42.121Z,10.60
2023-10-18T16:26:18.043Z,10.60
2023-10-18T16:28:47.019Z,10.50
2023-10-18T16:31:14.878Z,10.50
2023-10-18T16:33:42.575Z,10.50
2023-10-18T16:36:10.127Z,10.50
2023-10-18T16:38:37.799Z,10.60
2023-10-18T16:41:06.271Z,10.60
2023-10-18T16:43:37.046Z,10.60
2023-10-18T16:46:06.878Z,10.60
2023-10-18T16:48:35.293Z,10.60
2023-10-18T16:51:06.678Z,10.60
2023-10-18T16:53:34.337Z,10.60
2023-10-18T16:56:01.167Z,10.50
2023-10-18T16:58:27.950Z,10.50
2023-10-18T17:01:13.732Z,10.50
2023-10-18T17:03:46.065Z,10.50
2023-10-18T17:06:14.907Z,10.40
2023-10-18T17:08:43.642Z,10.50
2023-10-18T17:11:13.496Z,10.50
2023-10-18T17:13:43.955Z,10.50
2023-10-18T17:16:11.386Z,10.50
2023-10-18T17:18:38.435Z,10.50
2023-10-18T17:21:17.486Z,10.50
2023-10-18T17:23:45.794Z,10.40
2023-10-18T17:26:13.048Z,10.50
2023-10-18T17:28:40.101Z,10.40
2023-10-18T17:31:07.128Z,10.40
2023-10-18T17:33:34.385Z,10.40
2023-10-18T17:36:01.877Z,10.40
2023-10-18T17:38:28.794Z,10.40
2023-10-18T17:40:55.696Z,10.30
2023-10-18T17:43:23.381Z,10.30
2023-10-18T17:45:51.317Z,10.30
2023-10-18T17:48:19.164Z,10.30
2023-10-18T17:50:47.540Z,10.30
2023-10-18T17:53:15.249Z,10.30
2023-10-18T17:55:45.560Z,10.30
2023-10-18T17:58:15.683Z,10.20
2023-10-18T18:00:45.532Z,10.20
2023-10-18T18:03:14.755Z,10.20
2023-10-18T18:05:44.522Z,10.20
2023-10-18T18:08:12.003Z,10.20
2023-10-18T18:10:47.464Z,10.20
2023-10-18T18:13:18.076Z,10.20
2023-10-18T18:15:45.028Z,10.10
2023-10-18T18:18:12.778Z,10.00
2023-10-18T18:20:41.621Z,10.00
2023-10-18T18:23:09.056Z,10.00
2023-10-18T18:25:38.828Z,10.00
2023-10-18T18:28:05.873Z,10.00
2023-10-18T18:30:32.876Z,10.00
2023-10-18T18:33:01.302Z,10.00
2023-10-18T18:35:28.786Z,10.00
2023-10-18T18:37:55.762Z,10.00
2023-10-18T18:40:23.510Z,9.90
2023-10-18T18:42:51.748Z,9.90
2023-10-18T18:45:21.660Z,9.90
2023-10-18T18:47:49.032Z,9.90
2023-10-18T18:50:15.907Z,9.90
2023-10-18T18:52:46.644Z,9.80
2023-10-18T18:55:15.704Z,9.80
2023-10-18T18:57:46.383Z,9.80
2023-10-18T19:00:17.034Z,9.70
2023-10-18T19:02:46.826Z,9.60
2023-10-18T19:05:14.018Z,9.60
2023-10-18T19:07:43.431Z,9.60
2023-10-18T19:10:11.437Z,9.50
2023-10-18T19:12:38.903Z,9.50
2023-10-18T19:15:11.673Z,9.40
2023-10-18T19:17:40.074Z,9.50
2023-10-18T19:20:12.613Z,9.40
2023-10-18T19:22:39.846Z,9.40
2023-10-18T19:25:10.959Z,9.40
2023-10-18T19:27:38.297Z,9.50
2023-10-18T19:30:12.958Z,9.50
2023-10-18T19:32:40.256Z,9.50
2023-10-18T19:35:10.339Z,9.50
2023-10-18T19:37:40.884Z,9.40
2023-10-18T19:40:12.122Z,9.40
2023-10-18T19:42:40.436Z,9.30
2023-10-18T19:45:09.436Z,9.30
2023-10-18T19:47:36.450Z,9.30
2023-10-18T19:50:04.298Z,9.30
2023-10-18T19:52:31.344Z,9.30
2023-10-18T19:54:58.126Z,9.30
2023-10-18T19:57:25.235Z,9.30
2023-10-18T19:59:53.664Z,9.30
2023-10-18T20:02:20.968Z,9.30
2023-10-18T20:04:48.039Z,9.30
2023-10-18T20:07:18.361Z,9.40
2023-10-18T20:09:45.378Z,9.40
2023-10-18T20:12:12.372Z,9.40
2023-10-18T20:14:39.277Z,9.40
2023-10-18T20:17:06.580Z,9.40
2023-10-18T20:19:33.773Z,9.30
2023-10-18T20:22:00.567Z,9.30
2023-10-18T20:24:27.894Z,9.30
2023-10-18T20:26:54.968Z,9.20
2023-10-18T20:29:22.043Z,9.20
2023-10-18T20:31:50.636Z,9.00
2023-10-18T20:34:17.437Z,8.90
2023-10-18T20:36:44.423Z,8.90
2023-10-18T20:39:11.268Z,8.80
2023-10-18T20:41:39.667Z,8.80
2023-10-18T20:44:18.831Z,8.80
2023-10-18T20:46:49.578Z,8.80
2023-10-18T20:49:21.491Z,8.80
2023-10-18T20:51:52.871Z,8.80
2023-10-18T20:54:20.868Z,8.70
2023-10-18T20:56:51.493Z,8.70
2023-10-18T20:59:25.537Z,8.70
2023-10-18T21:01:53.776Z,8.70
2023-10-18T21:04:20.626Z,8.70
2023-10-18T21:06:52.275Z,8.60
2023-10-18T21:09:19.670Z,8.50
2023-10-18T21:11:46.759Z,8.40
2023-10-18T21:14:16.663Z,8.40
2023-10-18T21:16:46.790Z,8.40
2023-10-18T21:19:14.878Z,8.30
2023-10-18T21:21:42.481Z,8.30
2023-10-18T21:24:09.569Z,8.20
2023-10-18T21:26:36.216Z,8.20
2023-10-18T21:29:02.978Z,8.20
2023-10-18T21:31:30.171Z,8.20
2023-10-18T21:33:56.883Z,8.10
2023-10-18T21:36:23.576Z,8.10
2023-10-18T21:38:50.433Z,8.10
2023-10-18T21:41:18.294Z,8.10
2023-10-18T21:43:48.039Z,8.00
2023-10-18T21:46:15.566Z,8.00
2023-10-18T21:48:42.913Z,7.90
2023-10-18T21:51:13.123Z,7.90
2023-10-18T21:53:41.013Z,7.70
2023-10-18T21:56:08.781Z,7.60
2023-10-18T21:58:40.467Z,7.60
2023-10-18T22:01:28.283Z,7.60
2023-10-18T22:03:57.099Z,7.60
2023-10-18T22:06:26.389Z,7.70
2023-10-18T22:08:53.256Z,7.70
2023-10-18T22:11:25.823Z,7.80
2023-10-18T22:13:55.875Z,7.60
2023-10-18T22:16:26.583Z,7.50
2023-10-18T22:18:56.427Z,7.40
2023-10-18T22:21:29.793Z,7.30
2023-10-18T22:24:00.405Z,7.30
2023-10-18T22:26:31.784Z,7.30
2023-10-18T22:29:01.111Z,7.40
2023-10-18T22:31:28.022Z,7.50
2023-10-18T22:33:56.025Z,7.50
2023-10-18T22:36:23.977Z,7.60
2023-10-18T22:38:51.679Z,7.50
2023-10-18T22:41:34.104Z,7.50
2023-10-18T22:44:09.566Z,7.60
2023-10-18T22:46:48.942Z,7.60
2023-10-18T22:49:24.109Z,7.60
2023-10-18T22:51:59.280Z,7.70
2023-10-18T22:54:43.197Z,7.70
2023-10-18T22:57:26.094Z,7.70
2023-10-18T22:59:54.236Z,7.70
2023-10-18T23:02:24.130Z,7.80
2023-10-18T23:04:55.650Z,7.80
2023-10-18T23:07:28.744Z,7.90
2023-10-18T23:09:55.975Z,7.80
2023-10-18T23:12:24.998Z,7.80
2023-10-18T23:15:19.033Z,7.80
2023-10-18T23:17:53.213Z,7.80
2023-10-18T23:20:36.427Z,7.80
2023-10-18T23:23:08.467Z,7.80
2023-10-18T23:25:54.084Z,7.60
2023-10-18T23:28:29.034Z,7.60
2023-10-18T23:30:58.776Z,7.50
2023-10-18T23:33:46.203Z,7.70
2023-10-18T23:36:15.988Z,7.70
2023-10-18T23:38:44.654Z,7.80
2023-10-18T23:41:21.555Z,7.90
2023-10-18T23:43:50.132Z,7.90
2023-10-18T23:46:37.378Z,8.00
2023-10-18T23:49:23.068Z,8.00
2023-10-18T23:52:15.276Z,8.10
2023-10-18T23:54:44.082Z,8.10
2023-10-18T23:57:13.664Z,8.20
2023-10-18T23:59:42.177Z,8.20
